createdAt,value
2023-01-17T00:02:05.774Z,98292.78
2023-01-17T00:04:51.534Z,98288.59
2023-01-17T00:07:40.005Z,98305.06
2023-01-17T00:10:11.278Z,98296.00
2023-01-17T00:12:39.323Z,98308.59
2023-01-17T00:15:08.527Z,98303.19
2023-01-17T00:17:36.314Z,98309.78
2023-01-17T00:20:21.746Z,98315.31
2023-01-17T00:23:13.466Z,98311.44
2023-01-17T00:25:59.370Z,98320.66
2023-01-17T00:28:27.147Z,98319.72
2023-01-17T00:30:53.882Z,98330.97
2023-01-17T00:33:21.671Z,98331.53
2023-01-17T00:35:48.998Z,98329.41
2023-01-17T00:38:18.661Z,98336.78
2023-01-17T00:40:46.918Z,98344.63
2023-01-17T00:43:34.151Z,98345.22
2023-01-17T00:46:20.727Z,98355.19
2023-01-17T00:49:06.152Z,98372.53
2023-01-17T00:51:52.900Z,98378.28
2023-01-17T00:54:39.640Z,98389.84
2023-01-17T00:57:25.826Z,98388.22
2023-01-17T01:00:11.284Z,98394.91
2023-01-17T01:02:56.683Z,98395.41
2023-01-17T01:05:42.431Z,98380.91
2023-01-17T01:08:40.348Z,98387.50
2023-01-17T01:11:29.620Z,98375.69
2023-01-17T01:14:15.134Z,98384.78
2023-01-17T01:17:00.178Z,98385.75
2023-01-17T01:19:45.850Z,98400.84
2023-01-17T01:22:31.368Z,98406.06
2023-01-17T01:25:16.659Z,98418.03
2023-01-17T01:28:03.848Z,98418.81
2023-01-17T01:30:49.065Z,98411.47
2023-01-17T01:33:19.255Z,98430.53
2023-01-17T01:35:49.350Z,98432.66
2023-01-17T01:38:17.274Z,98430.03
2023-01-17T01:40:46.860Z,98424.63
2023-01-17T01:43:19.617Z,98428.72
2023-01-17T01:45:53.146Z,98435.06
2023-01-17T01:48:34.685Z,98437.78
2023-01-17T01:51:05.091Z,98439.53
2023-01-17T01:53:35.392Z,98429.75
2023-01-17T01:56:07.157Z,98439.50
2023-01-17T01:58:37.882Z,98445.91
2023-01-17T02:01:08.161Z,98457.47
2023-01-17T02:03:37.336Z,98459.41
2023-01-17T02:06:20.108Z,98459.00
2023-01-17T02:08:48.735Z,98473.66
2023-01-17T02:11:16.437Z,98479.47
2023-01-17T02:13:45.628Z,98483.13
2023-01-17T02:16:21.915Z,98495.41
2023-01-17T02:19:00.644Z,98518.59
2023-01-17T02:21:34.383Z,98528.03
2023-01-17T02:24:33.904Z,98518.19
2023-01-17T02:27:08.264Z,98522.91
2023-01-17T02:30:21.492Z,98528.22
2023-01-17T02:33:02.952Z,98524.59
2023-01-17T02:35:38.670Z,98523.06
2023-01-17T02:38:18.146Z,98517.06
2023-01-17T02:40:50.447Z,98520.47
2023-01-17T02:43:19.766Z,98522.00
2023-01-17T02:45:47.630Z,98520.16
2023-01-17T02:48:19.837Z,98527.22
2023-01-17T02:51:12.288Z,98527.22
2023-01-17T02:53:54.157Z,98528.28
2023-01-17T02:56:35.353Z,98535.03
2023-01-17T02:59:12.222Z,98525.69
2023-01-17T03:01:54.096Z,98533.00
2023-01-17T03:04:29.285Z,98533.56
2023-01-17T03:07:01.849Z,98539.81
2023-01-17T03:09:31.422Z,98532.59
2023-01-17T03:12:00.189Z,98540.41
2023-01-17T03:14:31.183Z,98540.97
2023-01-17T03:16:59.074Z,98548.00
2023-01-17T03:19:28.217Z,98541.53
2023-01-17T03:21:56.121Z,98547.81
2023-01-17T03:24:23.885Z,98550.41
2023-01-17T03:26:51.666Z,98551.94
2023-01-17T03:29:20.286Z,98559.78
2023-01-17T03:31:48.077Z,98557.94
2023-01-17T03:34:15.877Z,98560.56
2023-01-17T03:36:45.036Z,98563.16
2023-01-17T03:39:12.828Z,98571.00
2023-01-17T03:41:40.656Z,98570.69
2023-01-17T03:44:08.458Z,98569.16
2023-01-17T03:46:36.422Z,98571.28
2023-01-17T03:49:04.240Z,98570.75
2023-01-17T03:51:32.009Z,98568.44
2023-01-17T03:54:01.154Z,98580.69
2023-01-17T03:56:28.969Z,98578.38
2023-01-17T03:58:58.501Z,98584.63
2023-01-17T04:01:26.493Z,98579.22
2023-01-17T04:03:54.443Z,98584.50
2023-01-17T04:06:22.198Z,98582.53
2023-01-17T04:08:50.046Z,98585.69
2023-01-17T04:11:19.165Z,98583.63
2023-01-17T04:13:46.987Z,98594.41
2023-01-17T04:16:18.375Z,98591.63
2023-01-17T04:18:46.214Z,98596.13
2023-01-17T04:21:13.984Z,98602.66
2023-01-17T04:23:41.720Z,98608.16
2023-01-17T04:26:10.488Z,98601.88
2023-01-17T04:28:39.847Z,98606.81
2023-01-17T04:31:08.132Z,98597.94
2023-01-17T04:33:35.901Z,98600.53
2023-01-17T04:36:03.688Z,98597.16
2023-01-17T04:38:31.520Z,98599.25
2023-01-17T04:40:59.294Z,98590.66
2023-01-17T04:43:27.062Z,98584.47
2023-01-17T04:45:58.184Z,98585.00
2023-01-17T04:48:27.157Z,98587.13
2023-01-17T04:51:00.547Z,98579.88
2023-01-17T04:53:28.586Z,98575.44
2023-01-17T04:55:56.370Z,98579.88
2023-01-17T04:58:24.221Z,98588.72
2023-01-17T05:00:52.083Z,98577.53
2023-01-17T05:03:22.875Z,98591.84
2023-01-17T05:05:50.630Z,98591.84
2023-01-17T05:08:18.425Z,98587.69
2023-01-17T05:10:47.203Z,98595.28
2023-01-17T05:13:15.410Z,98601.81
2023-01-17T05:15:43.284Z,98600.03
2023-01-17T05:18:13.826Z,98605.03
2023-01-17T05:20:43.477Z,98608.94
2023-01-17T05:23:11.956Z,98610.28
2023-01-17T05:25:44.444Z,98610.81
2023-01-17T05:28:13.937Z,98617.34
2023-01-17T05:30:42.251Z,98614.25
2023-01-17T05:33:10.543Z,98609.56
2023-01-17T05:35:38.923Z,98605.44
2023-01-17T05:38:08.141Z,98613.50
2023-01-17T05:40:36.211Z,98619.00
2023-01-17T05:43:04.536Z,98608.88
2023-01-17T05:45:33.684Z,98615.41
2023-01-17T05:48:02.163Z,98613.81
2023-01-17T05:50:31.893Z,98628.66
2023-01-17T05:53:01.902Z,98626.34
2023-01-17T05:55:32.526Z,98635.97
2023-01-17T05:58:00.880Z,98634.97
2023-01-17T06:00:29.077Z,98649.53
2023-01-17T06:02:57.605Z,98643.81
2023-01-17T06:05:26.389Z,98638.09
2023-01-17T06:07:54.863Z,98640.72
2023-01-17T06:10:23.279Z,98649.31
2023-01-17T06:13:01.970Z,98653.19
2023-01-17T06:15:29.878Z,98658.91
2023-01-17T06:17:57.784Z,98660.69
2023-01-17T06:20:25.720Z,98657.25
2023-01-17T06:22:55.261Z,98673.34
2023-01-17T06:25:23.103Z,98679.78
2023-01-17T06:27:54.628Z,98674.81
2023-01-17T06:30:22.687Z,98668.28
2023-01-17T06:32:53.769Z,98675.56
2023-01-17T06:35:21.622Z,98664.59
2023-01-17T06:37:52.048Z,98656.00
2023-01-17T06:40:20.160Z,98656.00
2023-01-17T06:42:47.947Z,98650.78
2023-01-17T06:45:17.347Z,98649.22
2023-01-17T06:47:45.206Z,98658.09
2023-01-17T06:50:14.566Z,98655.00
2023-01-17T06:52:43.678Z,98664.91
2023-01-17T06:55:11.491Z,98669.59
2023-01-17T06:57:39.258Z,98661.56
2023-01-17T07:00:08.332Z,98673.59
2023-01-17T07:02:37.495Z,98671.25
2023-01-17T07:05:05.652Z,98675.94
2023-01-17T07:07:34.084Z,98669.75
2023-01-17T07:10:03.517Z,98675.97
2023-01-17T07:12:31.328Z,98676.53
2023-01-17T07:14:59.139Z,98671.09
2023-01-17T07:17:26.897Z,98672.41
2023-01-17T07:19:56.061Z,98674.50
2023-01-17T07:22:23.886Z,98673.22
2023-01-17T07:24:53.467Z,98681.31
2023-01-17T07:27:21.318Z,98679.25
2023-01-17T07:29:49.687Z,98674.56
2023-01-17T07:32:17.470Z,98678.25
2023-01-17T07:34:45.298Z,98681.66
2023-01-17T07:37:15.422Z,98681.91
2023-01-17T07:39:43.487Z,98680.63
2023-01-17T07:42:11.299Z,98678.81
2023-01-17T07:44:41.393Z,98682.72
2023-01-17T07:47:09.236Z,98680.41
2023-01-17T07:49:37.112Z,98681.44
2023-01-17T07:52:05.209Z,98692.13
2023-01-17T07:54:34.359Z,98695.00
2023-01-17T07:57:02.905Z,98689.25
2023-01-17T07:59:30.807Z,98691.88
2023-01-17T08:01:58.756Z,98679.94
2023-01-17T08:04:27.286Z,98697.06
2023-01-17T08:06:55.137Z,98694.22
2023-01-17T08:09:23.172Z,98695.00
2023-01-17T08:11:52.311Z,98696.53
2023-01-17T08:14:20.069Z,98692.13
2023-01-17T08:16:47.850Z,98692.91
2023-01-17T08:19:18.519Z,98697.53
2023-01-17T08:21:46.459Z,98700.69
2023-01-17T08:24:14.689Z,98704.56
2023-01-17T08:26:42.496Z,98712.09
2023-01-17T08:29:11.665Z,98712.09
2023-01-17T08:31:39.484Z,98704.78
2023-01-17T08:34:07.431Z,98712.84
2023-01-17T08:36:35.265Z,98708.16
2023-01-17T08:39:03.021Z,98714.38
2023-01-17T08:41:32.205Z,98715.13
2023-01-17T08:43:59.985Z,98717.16
2023-01-17T08:46:31.383Z,98721.84
2023-01-17T08:49:02.614Z,98714.78
2023-01-17T08:51:32.414Z,98722.31
2023-01-17T08:54:00.253Z,98713.47
2023-01-17T08:56:28.151Z,98726.47
2023-01-17T08:58:55.951Z,98731.41
2023-01-17T09:01:23.932Z,98726.69
2023-01-17T09:03:53.252Z,98728.25
2023-01-17T09:06:21.040Z,98735.00
2023-01-17T09:08:49.712Z,98734.75
2023-01-17T09:11:18.826Z,98735.75
2023-01-17T09:13:46.669Z,98739.88
2023-01-17T09:16:14.440Z,98742.44
2023-01-17T09:18:42.252Z,98739.81
2023-01-17T09:21:16.279Z,98742.63
2023-01-17T09:23:44.916Z,98747.03
2023-01-17T09:26:18.631Z,98749.56
2023-01-17T09:28:46.485Z,98749.28
2023-01-17T09:31:16.543Z,98755.72
2023-01-17T09:33:45.186Z,98750.47
2023-01-17T09:36:14.393Z,98756.69
2023-01-17T09:38:42.339Z,98757.41
2023-01-17T09:41:27.454Z,98754.25
2023-01-17T09:44:01.028Z,98758.66
2023-01-17T09:46:31.747Z,98766.44
2023-01-17T09:49:05.797Z,98760.94
2023-01-17T09:51:35.435Z,98779.13
2023-01-17T09:54:03.491Z,98778.84
2023-01-17T09:56:36.555Z,98778.81
2023-01-17T09:59:19.199Z,98781.19
2023-01-17T10:01:55.595Z,98779.78
2023-01-17T10:04:48.962Z,98785.78
2023-01-17T10:07:34.088Z,98793.28
2023-01-17T10:10:20.215Z,98780.69
2023-01-17T10:12:56.087Z,98785.09
2023-01-17T10:15:50.092Z,98780.31
2023-01-17T10:18:33.095Z,98779.41
2023-01-17T10:21:08.587Z,98789.75
2023-01-17T10:23:51.872Z,98786.19
2023-01-17T10:26:24.887Z,98786.59
2023-01-17T10:28:56.606Z,98781.47
2023-01-17T10:31:26.037Z,98777.38
2023-01-17T10:33:55.553Z,98781.09
2023-01-17T10:36:25.142Z,98785.72
2023-01-17T10:38:57.880Z,98787.41
2023-01-17T10:41:30.340Z,98790.22
2023-01-17T10:44:08.434Z,98787.53
2023-01-17T10:46:42.348Z,98785.41
2023-01-17T10:49:16.746Z,98785.06
2023-01-17T10:52:00.139Z,98796.63
2023-01-17T10:54:46.670Z,98790.84
2023-01-17T10:57:16.969Z,98797.53
2023-01-17T10:59:45.301Z,98788.75
2023-01-17T11:02:21.524Z,98795.88
2023-01-17T11:04:57.593Z,98797.38
2023-01-17T11:07:27.422Z,98793.72
2023-01-17T11:09:58.162Z,98799.66
2023-01-17T11:12:30.220Z,98803.78
2023-01-17T11:15:05.863Z,98797.59
2023-01-17T11:17:35.027Z,98795.19
2023-01-17T11:20:19.941Z,98796.06
2023-01-17T11:23:03.668Z,98791.22
2023-01-17T11:25:35.026Z,98782.69
2023-01-17T11:28:07.040Z,98787.91
2023-01-17T11:30:35.168Z,98786.75
2023-01-17T11:33:06.084Z,98781.22
2023-01-17T11:35:36.623Z,98782.09
2023-01-17T11:38:07.392Z,98780.75
2023-01-17T11:40:40.629Z,98777.91
2023-01-17T11:43:25.516Z,98776.72
2023-01-17T11:46:06.340Z,98774.41
2023-01-17T11:48:37.153Z,98772.22
2023-01-17T11:51:18.560Z,98772.91
2023-01-17T11:53:48.370Z,98775.81
2023-01-17T11:56:30.696Z,98782.31
2023-01-17T11:59:24.450Z,98781.06
2023-01-17T12:02:05.822Z,98779.25
2023-01-17T12:04:39.555Z,98776.97
2023-01-17T12:07:19.924Z,98773.47
2023-01-17T12:09:54.521Z,98774.75
2023-01-17T12:12:49.435Z,98770.41
2023-01-17T12:15:35.377Z,98771.75
2023-01-17T12:18:21.983Z,98768.63
2023-01-17T12:20:57.535Z,98774.00
2023-01-17T12:24:03.127Z,98764.03
2023-01-17T12:26:38.885Z,98758.06
2023-01-17T12:29:35.652Z,98767.34
2023-01-17T12:32:22.253Z,98752.94
2023-01-17T12:34:54.542Z,98754.09
2023-01-17T12:37:29.502Z,98751.41
2023-01-17T12:40:01.824Z,98751.09
2023-01-17T12:42:33.718Z,98755.38
2023-01-17T12:45:06.903Z,98751.53
2023-01-17T12:47:38.333Z,98741.63
2023-01-17T12:50:22.293Z,98744.66
2023-01-17T12:52:59.467Z,98746.34
2023-01-17T12:55:36.872Z,98744.56
2023-01-17T12:58:14.613Z,98751.75
2023-01-17T13:01:20.791Z,98747.50
2023-01-17T13:04:00.196Z,98756.72
2023-01-17T13:06:43.363Z,98762.66
2023-01-17T13:09:14.966Z,98753.44
2023-01-17T13:11:49.752Z,98754.09
2023-01-17T13:14:17.569Z,98750.72
2023-01-17T13:16:50.054Z,98749.19
2023-01-17T13:19:25.718Z,98748.13
2023-01-17T13:21:54.494Z,98755.06
2023-01-17T13:24:41.702Z,98751.28
2023-01-17T13:27:32.430Z,98749.28
2023-01-17T13:30:25.304Z,98754.59
2023-01-17T13:33:10.256Z,98752.53
2023-01-17T13:35:43.662Z,98759.78
2023-01-17T13:38:25.187Z,98759.94
2023-01-17T13:40:55.610Z,98756.28
2023-01-17T13:43:26.790Z,98748.34
2023-01-17T13:45:56.931Z,98751.59
2023-01-17T13:48:32.351Z,98756.56
2023-01-17T13:51:02.259Z,98759.94
2023-01-17T13:54:00.110Z,98761.88
2023-01-17T13:56:30.690Z,98768.88
2023-01-17T13:59:03.049Z,98770.00
2023-01-17T14:01:50.818Z,98776.50
2023-01-17T14:04:20.791Z,98776.84
2023-01-17T14:06:52.913Z,98770.75
2023-01-17T14:09:26.021Z,98776.56
2023-01-17T14:12:00.846Z,98786.34
2023-01-17T14:14:48.750Z,98783.25
2023-01-17T14:17:38.266Z,98782.81
2023-01-17T14:20:51.988Z,98788.63
2023-01-17T14:23:47.995Z,98790.47
2023-01-17T14:26:31.118Z,98794.09
2023-01-17T14:29:00.955Z,98786.16
2023-01-17T14:31:30.498Z,98782.00
2023-01-17T14:34:13.090Z,98783.19
2023-01-17T14:36:41.087Z,98781.72
2023-01-17T14:39:23.192Z,98783.78
2023-01-17T14:41:51.265Z,98790.13
2023-01-17T14:44:20.234Z,98786.88
2023-01-17T14:46:49.936Z,98783.78
2023-01-17T14:49:24.056Z,98782.94
2023-01-17T14:52:01.582Z,98785.75
2023-01-17T14:54:30.754Z,98788.31
2023-01-17T14:57:27.077Z,98783.56
2023-01-17T15:00:11.009Z,98790.50
2023-01-17T15:02:42.889Z,98784.56
2023-01-17T15:05:16.237Z,98792.72
2023-01-17T15:07:46.818Z,98798.47
2023-01-17T15:10:18.531Z,98800.19
2023-01-17T15:12:47.759Z,98798.19
2023-01-17T15:15:35.280Z,98797.13
2023-01-17T15:18:26.184Z,98792.66
2023-01-17T15:21:00.463Z,98798.88
2023-01-17T15:23:33.486Z,98808.00
2023-01-17T15:26:04.931Z,98804.00
2023-01-17T15:28:34.476Z,98816.19
2023-01-17T15:31:08.835Z,98814.97
2023-01-17T15:33:39.149Z,98815.88
2023-01-17T15:36:09.877Z,98809.34
2023-01-17T15:38:39.851Z,98814.91
2023-01-17T15:41:12.881Z,98813.47
2023-01-17T15:43:42.058Z,98811.28
2023-01-17T15:46:23.403Z,98819.44
2023-01-17T15:48:51.790Z,98812.63
2023-01-17T15:51:34.111Z,98819.59
2023-01-17T15:54:25.667Z,98809.72
2023-01-17T15:57:14.719Z,98812.63
2023-01-17T15:59:46.493Z,98809.34
2023-01-17T16:02:34.836Z,98819.97
2023-01-17T16:05:05.810Z,98808.56
2023-01-17T16:07:36.480Z,98819.50
2023-01-17T16:10:14.629Z,98811.28
2023-01-17T16:12:43.755Z,98813.09
2023-01-17T16:15:13.527Z,98810.28
2023-01-17T16:17:45.474Z,98818.28
2023-01-17T16:20:19.735Z,98815.31
2023-01-17T16:22:48.043Z,98814.50
2023-01-17T16:25:19.009Z,98823.06
2023-01-17T16:27:49.045Z,98824.59
2023-01-17T16:30:19.527Z,98824.22
2023-01-17T16:32:49.336Z,98828.81
2023-01-17T16:35:20.780Z,98823.53
2023-01-17T16:37:50.452Z,98832.38
2023-01-17T16:40:18.860Z,98826.31
2023-01-17T16:42:48.446Z,98831.56
2023-01-17T16:45:17.204Z,98832.69
2023-01-17T16:47:48.278Z,98828.72
2023-01-17T16:50:18.182Z,98830.97
2023-01-17T16:52:46.002Z,98838.13
2023-01-17T16:55:16.124Z,98838.91
2023-01-17T16:57:44.373Z,98841.03
2023-01-17T17:00:14.675Z,98846.06
2023-01-17T17:02:42.745Z,98844.47
2023-01-17T17:05:11.472Z,98846.56
2023-01-17T17:07:42.923Z,98850.00
2023-01-17T17:10:11.440Z,98856.53
2023-01-17T17:12:39.102Z,98865.66
2023-01-17T17:15:08.233Z,98863.88
2023-01-17T17:17:38.337Z,98869.19
2023-01-17T17:20:09.715Z,98869.38
2023-01-17T17:22:37.532Z,98866.28
2023-01-17T17:25:06.787Z,98872.84
2023-01-17T17:27:34.810Z,98879.13
2023-01-17T17:30:02.715Z,98871.50
2023-01-17T17:32:30.934Z,98879.28
2023-01-17T17:35:00.193Z,98883.16
2023-01-17T17:37:29.094Z,98882.69
2023-01-17T17:39:57.274Z,98885.50
2023-01-17T17:42:26.584Z,98889.19
2023-01-17T17:44:55.741Z,98884.22
2023-01-17T17:47:25.013Z,98887.97
2023-01-17T17:49:52.866Z,98901.28
2023-01-17T17:52:23.358Z,98910.56
2023-01-17T17:54:51.161Z,98915.13
2023-01-17T17:57:18.980Z,98915.94
2023-01-17T17:59:46.795Z,98923.00
2023-01-17T18:02:14.752Z,98920.13
2023-01-17T18:04:42.696Z,98920.69
2023-01-17T18:07:10.486Z,98919.25
2023-01-17T18:09:40.011Z,98925.69
2023-01-17T18:12:08.391Z,98928.91
2023-01-17T18:14:36.192Z,98933.72
2023-01-17T18:17:04.059Z,98936.41
2023-01-17T18:19:31.879Z,98938.72
2023-01-17T18:21:59.643Z,98943.41
2023-01-17T18:24:28.409Z,98945.50
2023-01-17T18:26:58.862Z,98945.53
2023-01-17T18:29:28.205Z,98960.00
2023-01-17T18:31:56.845Z,98960.50
2023-01-17T18:34:29.037Z,98962.88
2023-01-17T18:36:57.656Z,98970.50
2023-01-17T18:39:26.168Z,98974.47
2023-01-17T18:41:54.291Z,98982.78
2023-01-17T18:44:23.679Z,98984.09
2023-01-17T18:46:51.875Z,98980.47
2023-01-17T18:49:19.957Z,98985.75
2023-01-17T18:51:50.758Z,98984.75
2023-01-17T18:54:19.159Z,98986.38
2023-01-17T18:56:47.236Z,98989.53
2023-01-17T18:59:18.057Z,98985.94
2023-01-17T19:01:47.364Z,98985.41
2023-01-17T19:04:16.231Z,98984.84
2023-01-17T19:06:46.870Z,98988.31
2023-01-17T19:09:16.340Z,98986.56
2023-01-17T19:11:45.094Z,98992.31
2023-01-17T19:14:14.435Z,99000.72
2023-01-17T19:16:43.223Z,98997.06
2023-01-17T19:19:15.399Z,98999.97
2023-01-17T19:21:43.605Z,99001.56
2023-01-17T19:24:13.035Z,99003.16
2023-01-17T19:26:41.242Z,99000.78
2023-01-17T19:29:09.062Z,99002.88
2023-01-17T19:31:42.505Z,99000.28
2023-01-17T19:34:14.182Z,99007.59
2023-01-17T19:36:42.221Z,99013.81
2023-01-17T19:39:10.613Z,99009.69
2023-01-17T19:41:42.924Z,99008.66
2023-01-17T19:44:12.092Z,99008.91
2023-01-17T19:46:39.912Z,99021.19
2023-01-17T19:49:09.472Z,99013.09
2023-01-17T19:51:40.329Z,99019.31
2023-01-17T19:54:08.457Z,99025.31
2023-01-17T19:56:36.648Z,99023.22
2023-01-17T19:59:04.461Z,99021.69
2023-01-17T20:01:34.032Z,99019.31
2023-01-17T20:04:02.921Z,99020.63
2023-01-17T20:06:32.870Z,99026.38
2023-01-17T20:09:02.798Z,99027.41
2023-01-17T20:11:30.615Z,99027.41
2023-01-17T20:13:59.959Z,99024.03
2023-01-17T20:16:31.150Z,99029.50
2023-01-17T20:19:00.196Z,99026.41
2023-01-17T20:21:30.038Z,99021.44
2023-01-17T20:23:59.504Z,99027.19
2023-01-17T20:26:34.572Z,99030.81
2023-01-17T20:29:03.239Z,99026.13
2023-01-17T20:31:32.088Z,99030.03
2023-01-17T20:33:59.921Z,99026.69
2023-01-17T20:36:28.942Z,99021.47
2023-01-17T20:39:16.001Z,99024.09
2023-01-17T20:41:49.781Z,99029.53
2023-01-17T20:44:18.673Z,99027.19
2023-01-17T20:46:48.117Z,99026.41
2023-01-17T20:49:18.708Z,99032.94
2023-01-17T20:51:47.915Z,99040.22
2023-01-17T20:54:18.144Z,99031.13
2023-01-17T20:56:48.133Z,99036.06
2023-01-17T20:59:18.155Z,99034.78
2023-01-17T21:01:46.831Z,99039.47
2023-01-17T21:04:15.145Z,99038.69
2023-01-17T21:06:44.135Z,99030.09
2023-01-17T21:09:14.248Z,99037.91
2023-01-17T21:11:42.357Z,99032.16
2023-01-17T21:14:11.523Z,99042.59
2023-01-17T21:16:39.560Z,99043.59
2023-01-17T21:19:11.766Z,99043.59
2023-01-17T21:21:39.545Z,99046.22
2023-01-17T21:24:07.691Z,99048.06
2023-01-17T21:26:38.200Z,99043.09
2023-01-17T21:29:06.076Z,99050.13
2023-01-17T21:31:36.698Z,99051.97
2023-01-17T21:34:07.018Z,99048.81
2023-01-17T21:36:37.012Z,99053.25
2023-01-17T21:39:06.792Z,99045.97
2023-01-17T21:41:36.666Z,99053.00
2023-01-17T21:44:07.927Z,99044.66
2023-01-17T21:46:39.678Z,99050.91
2023-01-17T21:49:10.463Z,99051.16
2023-01-17T21:52:02.176Z,99051.44
2023-01-17T21:54:48.863Z,99051.69
2023-01-17T21:57:36.384Z,99045.97
2023-01-17T22:00:06.382Z,99041.53
2023-01-17T22:02:40.991Z,99053.00
2023-01-17T22:05:10.182Z,99051.44
2023-01-17T22:07:38.975Z,99042.31
2023-01-17T22:10:07.921Z,99047.28
2023-01-17T22:12:35.689Z,99046.22
2023-01-17T22:15:04.104Z,99053.25
2023-01-17T22:17:31.871Z,99056.09
2023-01-17T22:20:01.011Z,99061.56
2023-01-17T22:22:33.028Z,99059.25
2023-01-17T22:25:00.814Z,99065.72
2023-01-17T22:27:29.623Z,99067.78
2023-01-17T22:29:57.398Z,99070.91
2023-01-17T22:32:25.301Z,99069.84
2023-01-17T22:34:53.543Z,99071.19
2023-01-17T22:37:22.698Z,99069.09
2023-01-17T22:39:50.511Z,99077.38
2023-01-17T22:42:18.434Z,99081.28
2023-01-17T22:44:47.705Z,99083.63
2023-01-17T22:47:15.549Z,99084.91
2023-01-17T22:49:43.357Z,99083.59
2023-01-17T22:52:11.140Z,99083.59
2023-01-17T22:54:40.285Z,99083.09
2023-01-17T22:57:08.449Z,99077.88
2023-01-17T22:59:36.306Z,99088.28
2023-01-17T23:02:04.145Z,99081.25
2023-01-17T23:04:31.935Z,99083.84
2023-01-17T23:06:59.717Z,99079.69
2023-01-17T23:09:27.781Z,99073.72
2023-01-17T23:11:56.881Z,99077.09
2023-01-17T23:14:26.386Z,99077.38
2023-01-17T23:17:13.750Z,99081.00
2023-01-17T23:19:43.131Z,99078.88
2023-01-17T23:22:22.172Z,99083.06
2023-01-17T23:24:52.348Z,99079.16
2023-01-17T23:27:41.280Z,99074.22
2023-01-17T23:30:12.617Z,99077.84
2023-01-17T23:32:41.811Z,99069.25
2023-01-17T23:35:09.915Z,99072.13
2023-01-17T23:37:55.354Z,99079.13
2023-01-17T23:40:23.241Z,99077.81
2023-01-17T23:43:09.656Z,99081.97
2023-01-17T23:45:38.656Z,99077.28
2023-01-17T23:48:09.468Z,99082.22
2023-01-17T23:50:37.741Z,99080.63
2023-01-17T23:53:08.682Z,99082.69
2023-01-17T23:55:38.235Z,99089.69
2023-01-17T23:58:08.500Z,99084.50
